sensor_id;sensor_type;location;lat;lon;timestamp;temperature;humidity
12971;DHT22;6550;48.650;8.774;2023-10-13T00:01:08;16.60;99.90
12971;DHT22;6550;48.650;8.774;2023-10-13T00:03:39;16.70;99.90
12971;DHT22;6550;48.650;8.774;2023-10-13T00:06:12;16.50;99.90
12971;DHT22;6550;48.650;8.774;2023-10-13T00:08:39;16.50;99.90
12971;DHT22;6550;48.650;8.774;2023-10-13T00:11:12;16.50;99.90
12971;DHT22;6550;48.650;8.774;2023-10-13T00:13:41;16.60;99.90
12971;DHT22;6550;48.650;8.774;2023-10-13T00:16:18;16.80;99.90
12971;DHT22;6550;48.650;8.774;2023-10-13T00:18:50;16.60;99.90
12971;DHT22;6550;48.650;8.774;2023-10-13T00:21:21;16.60;99.90
12971;DHT22;6550;48.650;8.774;2023-10-13T00:24:02;17.10;99.90
12971;DHT22;6550;48.650;8.774;2023-10-13T00:26:33;16.50;99.90
12971;DHT22;6550;48.650;8.774;2023-10-13T00:29:05;16.80;99.90
12971;DHT22;6550;48.650;8.774;2023-10-13T00:31:39;16.90;99.90
12971;DHT22;6550;48.650;8.774;2023-10-13T00:34:10;17.00;99.90
12971;DHT22;6550;48.650;8.774;2023-10-13T00:36:52;16.40;99.90
12971;DHT22;6550;48.650;8.774;2023-10-13T00:39:37;16.90;99.90
12971;DHT22;6550;48.650;8.774;2023-10-13T00:42:13;16.30;99.90
12971;DHT22;6550;48.650;8.774;2023-10-13T00:44:54;17.00;99.90
12971;DHT22;6550;48.650;8.774;2023-10-13T00:47:26;16.20;99.90
12971;DHT22;6550;48.650;8.774;2023-10-13T00:50:04;16.20;99.90
12971;DHT22;6550;48.650;8.774;2023-10-13T00:52:35;16.10;99.90
12971;DHT22;6550;48.650;8.774;2023-10-13T00:55:08;16.10;99.90
12971;DHT22;6550;48.650;8.774;2023-10-13T00:57:36;16.30;99.90
12971;DHT22;6550;48.650;8.774;2023-10-13T01:00:07;16.10;99.90
12971;DHT22;6550;48.650;8.774;2023-10-13T01:02:53;16.20;99.90
12971;DHT22;6550;48.650;8.774;2023-10-13T01:05:33;16.10;99.90
12971;DHT22;6550;48.650;8.774;2023-10-13T01:08:03;15.90;99.90
12971;DHT22;6550;48.650;8.774;2023-10-13T01:10:30;16.10;99.90
12971;DHT22;6550;48.650;8.774;2023-10-13T01:12:59;16.80;99.90
12971;DHT22;6550;48.650;8.774;2023-10-13T01:15:28;16.60;99.90
12971;DHT22;6550;48.650;8.774;2023-10-13T01:18:09;16.10;99.90
12971;DHT22;6550;48.650;8.774;2023-10-13T01:20:40;16.30;99.90
12971;DHT22;6550;48.650;8.774;2023-10-13T01:23:12;15.90;99.90
12971;DHT22;6550;48.650;8.774;2023-10-13T01:25:46;16.20;99.90
12971;DHT22;6550;48.650;8.774;2023-10-13T01:28:16;15.80;99.90
12971;DHT22;6550;48.650;8.774;2023-10-13T01:30:46;16.20;99.90
12971;DHT22;6550;48.650;8.774;2023-10-13T01:33:18;16.20;99.90
12971;DHT22;6550;48.650;8.774;2023-10-13T01:35:54;16.30;99.90
12971;DHT22;6550;48.650;8.774;2023-10-13T01:38:23;16.20;99.90
12971;DHT22;6550;48.650;8.774;2023-10-13T01:40:54;15.70;99.90
12971;DHT22;6550;48.650;8.774;2023-10-13T01:43:23;16.00;99.90
12971;DHT22;6550;48.650;8.774;2023-10-13T01:45:50;15.70;99.90
12971;DHT22;6550;48.650;8.774;2023-10-13T01:48:20;15.70;99.90
12971;DHT22;6550;48.650;8.774;2023-10-13T01:50:48;15.70;99.90
12971;DHT22;6550;48.650;8.774;2023-10-13T01:53:22;15.90;99.90
12971;DHT22;6550;48.650;8.774;2023-10-13T01:55:49;16.30;99.90
12971;DHT22;6550;48.650;8.774;2023-10-13T01:58:16;15.50;99.90
12971;DHT22;6550;48.650;8.774;2023-10-13T02:00:46;16.20;99.90
12971;DHT22;6550;48.650;8.774;2023-10-13T02:03:15;15.50;99.90
12971;DHT22;6550;48.650;8.774;2023-10-13T02:05:44;15.80;99.90
12971;DHT22;6550;48.650;8.774;2023-10-13T02:08:20;15.70;99.90
12971;DHT22;6550;48.650;8.774;2023-10-13T02:10:54;15.90;99.90
12971;DHT22;6550;48.650;8.774;2023-10-13T02:13:27;15.30;99.90
12971;DHT22;6550;48.650;8.774;2023-10-13T02:15:57;15.30;99.90
12971;DHT22;6550;48.650;8.774;2023-10-13T02:18:24;15.90;99.90
12971;DHT22;6550;48.650;8.774;2023-10-13T02:20:55;15.60;99.90
12971;DHT22;6550;48.650;8.774;2023-10-13T02:23:24;15.50;99.90
12971;DHT22;6550;48.650;8.774;2023-10-13T02:26:02;15.20;99.90
12971;DHT22;6550;48.650;8.774;2023-10-13T02:28:37;15.50;99.90
12971;DHT22;6550;48.650;8.774;2023-10-13T02:31:07;15.20;99.90
12971;DHT22;6550;48.650;8.774;2023-10-13T02:33:34;15.30;99.90
12971;DHT22;6550;48.650;8.774;2023-10-13T02:36:05;15.70;99.90
12971;DHT22;6550;48.650;8.774;2023-10-13T02:38:34;15.20;99.90
12971;DHT22;6550;48.650;8.774;2023-10-13T02:41:11;15.50;99.90
12971;DHT22;6550;48.650;8.774;2023-10-13T02:43:38;15.10;99.90
12971;DHT22;6550;48.650;8.774;2023-10-13T02:46:06;15.60;99.90
12971;DHT22;6550;48.650;8.774;2023-10-13T02:48:35;15.50;99.90
12971;DHT22;6550;48.650;8.774;2023-10-13T02:51:08;15.40;99.90
12971;DHT22;6550;48.650;8.774;2023-10-13T02:53:45;15.50;99.90
12971;DHT22;6550;48.650;8.774;2023-10-13T02:56:16;15.40;99.90
12971;DHT22;6550;48.650;8.774;2023-10-13T02:58:53;15.10;99.90
12971;DHT22;6550;48.650;8.774;2023-10-13T03:01:25;15.40;99.90
12971;DHT22;6550;48.650;8.774;2023-10-13T03:03:56;14.70;99.90
12971;DHT22;6550;48.650;8.774;2023-10-13T03:06:26;15.10;99.90
12971;DHT22;6550;48.650;8.774;2023-10-13T03:09:05;15.30;99.90
12971;DHT22;6550;48.650;8.774;2023-10-13T03:11:44;14.90;99.90
12971;DHT22;6550;48.650;8.774;2023-10-13T03:14:23;15.20;99.90
12971;DHT22;6550;48.650;8.774;2023-10-13T03:16:52;15.40;99.90
12971;DHT22;6550;48.650;8.774;2023-10-13T03:19:20;14.60;99.90
12971;DHT22;6550;48.650;8.774;2023-10-13T03:21:47;14.70;99.90
12971;DHT22;6550;48.650;8.774;2023-10-13T03:24:34;15.20;99.90
12971;DHT22;6550;48.650;8.774;2023-10-13T03:27:04;15.30;99.90
12971;DHT22;6550;48.650;8.774;2023-10-13T03:29:44;14.70;99.90
12971;DHT22;6550;48.650;8.774;2023-10-13T03:32:15;14.90;99.90
12971;DHT22;6550;48.650;8.774;2023-10-13T03:34:45;14.50;99.90
12971;DHT22;6550;48.650;8.774;2023-10-13T03:37:19;14.50;99.90
12971;DHT22;6550;48.650;8.774;2023-10-13T03:40:12;14.40;99.90
12971;DHT22;6550;48.650;8.774;2023-10-13T03:42:52;15.50;99.90
12971;DHT22;6550;48.650;8.774;2023-10-13T03:48:08;15.10;99.90
12971;DHT22;6550;48.650;8.774;2023-10-13T03:51:00;14.70;99.90
12971;DHT22;6550;48.650;8.774;2023-10-13T03:53:31;14.90;99.90
12971;DHT22;6550;48.650;8.774;2023-10-13T03:56:02;14.80;99.90
12971;DHT22;6550;48.650;8.774;2023-10-13T03:58:43;14.40;99.90
12971;DHT22;6550;48.650;8.774;2023-10-13T04:01:13;15.10;99.90
12971;DHT22;6550;48.650;8.774;2023-10-13T04:03:44;14.70;99.90
12971;DHT22;6550;48.650;8.774;2023-10-13T04:06:35;15.10;99.90
12971;DHT22;6550;48.650;8.774;2023-10-13T04:09:21;15.00;99.90
12971;DHT22;6550;48.650;8.774;2023-10-13T04:11:58;14.40;99.90
12971;DHT22;6550;48.650;8.774;2023-10-13T04:14:33;14.60;99.90
12971;DHT22;6550;48.650;8.774;2023-10-13T04:17:19;14.30;99.90
12971;DHT22;6550;48.650;8.774;2023-10-13T04:19:57;14.20;99.90
12971;DHT22;6550;48.650;8.774;2023-10-13T04:22:38;14.80;99.90
12971;DHT22;6550;48.650;8.774;2023-10-13T04:25:26;14.10;99.90
12971;DHT22;6550;48.650;8.774;2023-10-13T04:28:25;14.90;99.90
12971;DHT22;6550;48.650;8.774;2023-10-13T04:31:06;14.20;99.90
12971;DHT22;6550;48.650;8.774;2023-10-13T04:33:39;14.40;99.90
12971;DHT22;6550;48.650;8.774;2023-10-13T04:36:19;14.50;99.90
12971;DHT22;6550;48.650;8.774;2023-10-13T04:38:56;14.10;99.90
12971;DHT22;6550;48.650;8.774;2023-10-13T04:41:28;14.50;99.90
12971;DHT22;6550;48.650;8.774;2023-10-13T04:44:05;14.80;99.90
12971;DHT22;6550;48.650;8.774;2023-10-13T04:46:53;14.20;99.90
12971;DHT22;6550;48.650;8.774;2023-10-13T04:49:21;15.00;99.90
12971;DHT22;6550;48.650;8.774;2023-10-13T04:51:56;14.70;99.90
12971;DHT22;6550;48.650;8.774;2023-10-13T04:54:28;14.70;99.90
12971;DHT22;6550;48.650;8.774;2023-10-13T04:57:22;14.10;99.90
12971;DHT22;6550;48.650;8.774;2023-10-13T05:00:13;14.20;99.90
12971;DHT22;6550;48.650;8.774;2023-10-13T05:02:48;14.10;99.90
12971;DHT22;6550;48.650;8.774;2023-10-13T05:05:27;14.40;99.90
12971;DHT22;6550;48.650;8.774;2023-10-13T05:08:15;14.20;99.90
12971;DHT22;6550;48.650;8.774;2023-10-13T05:11:06;13.90;99.90
12971;DHT22;6550;48.650;8.774;2023-10-13T05:13:52;14.40;99.90
12971;DHT22;6550;48.650;8.774;2023-10-13T05:16:37;14.00;99.90
12971;DHT22;6550;48.650;8.774;2023-10-13T05:19:22;14.00;99.90
12971;DHT22;6550;48.650;8.774;2023-10-13T05:22:08;14.10;99.90
12971;DHT22;6550;48.650;8.774;2023-10-13T05:24:56;13.90;99.90
12971;DHT22;6550;48.650;8.774;2023-10-13T05:27:41;13.80;99.90
12971;DHT22;6550;48.650;8.774;2023-10-13T05:30:28;13.80;99.90
12971;DHT22;6550;48.650;8.774;2023-10-13T05:33:13;14.50;99.90
12971;DHT22;6550;48.650;8.774;2023-10-13T05:35:58;14.20;99.90
12971;DHT22;6550;48.650;8.774;2023-10-13T05:38:44;14.50;99.90
12971;DHT22;6550;48.650;8.774;2023-10-13T05:41:29;14.10;99.90
12971;DHT22;6550;48.650;8.774;2023-10-13T05:44:19;13.90;99.90
12971;DHT22;6550;48.650;8.774;2023-10-13T05:47:23;14.10;99.90
12971;DHT22;6550;48.650;8.774;2023-10-13T05:50:06;13.90;99.90
12971;DHT22;6550;48.650;8.774;2023-10-13T05:52:51;13.60;99.90
12971;DHT22;6550;48.650;8.774;2023-10-13T05:55:28;13.70;99.90
12971;DHT22;6550;48.650;8.774;2023-10-13T05:58:16;13.90;99.90
12971;DHT22;6550;48.650;8.774;2023-10-13T06:01:04;13.70;99.90
12971;DHT22;6550;48.650;8.774;2023-10-13T06:03:52;13.50;99.90
12971;DHT22;6550;48.650;8.774;2023-10-13T06:06:38;13.50;99.90
12971;DHT22;6550;48.650;8.774;2023-10-13T06:09:23;13.50;99.90
12971;DHT22;6550;48.650;8.774;2023-10-13T06:12:09;13.50;99.90
12971;DHT22;6550;48.650;8.774;2023-10-13T06:14:54;14.50;99.90
12971;DHT22;6550;48.650;8.774;2023-10-13T06:17:41;13.60;99.90
12971;DHT22;6550;48.650;8.774;2023-10-13T06:20:27;14.10;99.90
12971;DHT22;6550;48.650;8.774;2023-10-13T06:23:12;13.80;99.90
12971;DHT22;6550;48.650;8.774;2023-10-13T06:25:58;14.30;99.90
12971;DHT22;6550;48.650;8.774;2023-10-13T06:28:43;13.90;99.90
12971;DHT22;6550;48.650;8.774;2023-10-13T06:31:15;14.20;99.90
12971;DHT22;6550;48.650;8.774;2023-10-13T06:33:49;13.80;99.90
12971;DHT22;6550;48.650;8.774;2023-10-13T06:36:18;13.60;99.90
12971;DHT22;6550;48.650;8.774;2023-10-13T06:38:45;13.70;99.90
12971;DHT22;6550;48.650;8.774;2023-10-13T06:41:21;13.60;99.90
12971;DHT22;6550;48.650;8.774;2023-10-13T06:43:58;13.60;99.90
12971;DHT22;6550;48.650;8.774;2023-10-13T06:46:32;13.60;99.90
12971;DHT22;6550;48.650;8.774;2023-10-13T06:49:03;13.70;99.90
12971;DHT22;6550;48.650;8.774;2023-10-13T06:51:29;13.80;99.90
12971;DHT22;6550;48.650;8.774;2023-10-13T06:54:05;13.70;99.90
12971;DHT22;6550;48.650;8.774;2023-10-13T06:59:13;14.00;99.90
12971;DHT22;6550;48.650;8.774;2023-10-13T07:01:45;14.00;99.90
12971;DHT22;6550;48.650;8.774;2023-10-13T07:04:15;14.00;99.90
12971;DHT22;6550;48.650;8.774;2023-10-13T07:06:43;14.10;99.90
12971;DHT22;6550;48.650;8.774;2023-10-13T07:09:17;14.20;99.90
12971;DHT22;6550;48.650;8.774;2023-10-13T07:12:06;14.20;99.90
12971;DHT22;6550;48.650;8.774;2023-10-13T07:17:05;15.20;99.90
12971;DHT22;6550;48.650;8.774;2023-10-13T07:19:37;14.30;99.90
12971;DHT22;6550;48.650;8.774;2023-10-13T07:22:20;14.30;99.90
12971;DHT22;6550;48.650;8.774;2023-10-13T07:24:50;14.50;99.90
12971;DHT22;6550;48.650;8.774;2023-10-13T07:27:21;14.40;99.90
12971;DHT22;6550;48.650;8.774;2023-10-13T07:29:53;15.00;99.90
12971;DHT22;6550;48.650;8.774;2023-10-13T07:32:41;15.80;99.90
12971;DHT22;6550;48.650;8.774;2023-10-13T07:35:22;14.90;99.90
12971;DHT22;6550;48.650;8.774;2023-10-13T07:37:53;15.60;99.90
12971;DHT22;6550;48.650;8.774;2023-10-13T07:40:28;15.40;99.90
12971;DHT22;6550;48.650;8.774;2023-10-13T07:42:57;16.30;99.90
12971;DHT22;6550;48.650;8.774;2023-10-13T07:45:40;15.90;99.90
12971;DHT22;6550;48.650;8.774;2023-10-13T07:48:09;16.50;99.90
12971;DHT22;6550;48.650;8.774;2023-10-13T07:53:15;16.40;99.90
12971;DHT22;6550;48.650;8.774;2023-10-13T07:58:24;16.90;99.90
12971;DHT22;6550;48.650;8.774;2023-10-13T08:03:25;17.20;99.90
12971;DHT22;6550;48.650;8.774;2023-10-13T08:06:14;18.00;99.90
12971;DHT22;6550;48.650;8.774;2023-10-13T08:08:44;17.80;99.90
12971;DHT22;6550;48.650;8.774;2023-10-13T08:11:17;18.40;99.90
12971;DHT22;6550;48.650;8.774;2023-10-13T08:16:36;18.50;99.90
12971;DHT22;6550;48.650;8.774;2023-10-13T08:19:21;18.80;99.90
12971;DHT22;6550;48.650;8.774;2023-10-13T08:21:58;19.10;99.90
12971;DHT22;6550;48.650;8.774;2023-10-13T08:24:26;19.40;99.90
12971;DHT22;6550;48.650;8.774;2023-10-13T08:27:23;19.40;99.90
12971;DHT22;6550;48.650;8.774;2023-10-13T08:30:09;19.80;99.90
12971;DHT22;6550;48.650;8.774;2023-10-13T08:32:58;19.90;99.90
12971;DHT22;6550;48.650;8.774;2023-10-13T08:35:26;20.10;99.90
12971;DHT22;6550;48.650;8.774;2023-10-13T08:38:05;20.30;99.90
12971;DHT22;6550;48.650;8.774;2023-10-13T08:40:59;20.70;99.90
12971;DHT22;6550;48.650;8.774;2023-10-13T08:43:27;20.70;99.90
12971;DHT22;6550;48.650;8.774;2023-10-13T08:46:08;20.80;99.90
12971;DHT22;6550;48.650;8.774;2023-10-13T08:49:00;21.10;99.90
12971;DHT22;6550;48.650;8.774;2023-10-13T08:51:42;21.00;99.90
12971;DHT22;6550;48.650;8.774;2023-10-13T08:54:14;21.10;99.90
12971;DHT22;6550;48.650;8.774;2023-10-13T08:57:01;21.30;99.90
12971;DHT22;6550;48.650;8.774;2023-10-13T09:02:47;21.60;99.90
12971;DHT22;6550;48.650;8.774;2023-10-13T09:05:43;21.70;99.90
12971;DHT22;6550;48.650;8.774;2023-10-13T09:08:28;22.00;99.90
12971;DHT22;6550;48.650;8.774;2023-10-13T09:11:14;22.00;99.90
12971;DHT22;6550;48.650;8.774;2023-10-13T09:16:16;22.60;99.90
12971;DHT22;6550;48.650;8.774;2023-10-13T09:18:49;22.60;99.90
12971;DHT22;6550;48.650;8.774;2023-10-13T09:21:21;22.70;99.90
12971;DHT22;6550;48.650;8.774;2023-10-13T09:24:14;22.90;99.90
12971;DHT22;6550;48.650;8.774;2023-10-13T09:26:58;23.10;99.90
12971;DHT22;6550;48.650;8.774;2023-10-13T09:29:28;23.20;99.90
12971;DHT22;6550;48.650;8.774;2023-10-13T09:32:05;23.30;99.90
12971;DHT22;6550;48.650;8.774;2023-10-13T09:34:38;23.70;99.90
12971;DHT22;6550;48.650;8.774;2023-10-13T09:39:38;23.90;99.90
12971;DHT22;6550;48.650;8.774;2023-10-13T09:42:12;23.90;99.90
12971;DHT22;6550;48.650;8.774;2023-10-13T09:44:44;23.90;99.90
12971;DHT22;6550;48.650;8.774;2023-10-13T09:47:23;24.10;99.90
12971;DHT22;6550;48.650;8.774;2023-10-13T09:50:10;24.20;99.90
12971;DHT22;6550;48.650;8.774;2023-10-13T09:55:35;24.30;99.90
12971;DHT22;6550;48.650;8.774;2023-10-13T09:58:10;24.20;99.90
12971;DHT22;6550;48.650;8.774;2023-10-13T10:00:48;24.20;99.90
12971;DHT22;6550;48.650;8.774;2023-10-13T10:03:24;24.30;99.90
12971;DHT22;6550;48.650;8.774;2023-10-13T10:08:48;24.20;99.90
12971;DHT22;6550;48.650;8.774;2023-10-13T10:11:34;24.20;99.90
12971;DHT22;6550;48.650;8.774;2023-10-13T10:17:18;24.20;99.90
12971;DHT22;6550;48.650;8.774;2023-10-13T10:19:49;24.10;99.90
12971;DHT22;6550;48.650;8.774;2023-10-13T10:22:32;23.90;99.90
12971;DHT22;6550;48.650;8.774;2023-10-13T10:28:06;24.00;99.90
12971;DHT22;6550;48.650;8.774;2023-10-13T10:30:37;24.00;99.90
12971;DHT22;6550;48.650;8.774;2023-10-13T10:33:10;23.90;99.90
12971;DHT22;6550;48.650;8.774;2023-10-13T10:35:43;23.80;99.90
12971;DHT22;6550;48.650;8.774;2023-10-13T10:38:16;23.90;99.90
12971;DHT22;6550;48.650;8.774;2023-10-13T10:40:57;23.90;99.90
12971;DHT22;6550;48.650;8.774;2023-10-13T10:43:29;23.80;99.90
12971;DHT22;6550;48.650;8.774;2023-10-13T10:46:12;23.80;99.90
12971;DHT22;6550;48.650;8.774;2023-10-13T10:48:45;23.80;99.90
12971;DHT22;6550;48.650;8.774;2023-10-13T10:51:14;24.00;99.90
12971;DHT22;6550;48.650;8.774;2023-10-13T10:53:54;24.40;99.90
12971;DHT22;6550;48.650;8.774;2023-10-13T10:56:27;24.40;99.90
12971;DHT22;6550;48.650;8.774;2023-10-13T10:59:06;24.50;99.90
12971;DHT22;6550;48.650;8.774;2023-10-13T11:01:43;24.70;99.90
12971;DHT22;6550;48.650;8.774;2023-10-13T11:04:17;24.70;99.90
12971;DHT22;6550;48.650;8.774;2023-10-13T11:06:51;24.70;99.90
12971;DHT22;6550;48.650;8.774;2023-10-13T11:09:35;24.90;99.90
12971;DHT22;6550;48.650;8.774;2023-10-13T11:12:14;25.00;99.90
12971;DHT22;6550;48.650;8.774;2023-10-13T11:17:49;25.00;99.90
12971;DHT22;6550;48.650;8.774;2023-10-13T11:20:21;25.00;99.90
12971;DHT22;6550;48.650;8.774;2023-10-13T11:23:00;24.90;99.90
12971;DHT22;6550;48.650;8.774;2023-10-13T11:25:32;25.10;99.90
12971;DHT22;6550;48.650;8.774;2023-10-13T11:28:16;25.20;99.90
12971;DHT22;6550;48.650;8.774;2023-10-13T11:30:58;25.30;99.90
12971;DHT22;6550;48.650;8.774;2023-10-13T11:36:02;25.40;97.80
12971;DHT22;6550;48.650;8.774;2023-10-13T11:38:32;25.60;98.20
12971;DHT22;6550;48.650;8.774;2023-10-13T11:43:50;25.70;97.70
12971;DHT22;6550;48.650;8.774;2023-10-13T11:46:22;25.90;96.60
12971;DHT22;6550;48.650;8.774;2023-10-13T11:51:52;26.40;95.90
12971;DHT22;6550;48.650;8.774;2023-10-13T11:54:20;26.30;96.10
12971;DHT22;6550;48.650;8.774;2023-10-13T11:56:50;26.50;96.00
12971;DHT22;6550;48.650;8.774;2023-10-13T11:59:17;26.60;95.30
12971;DHT22;6550;48.650;8.774;2023-10-13T12:07:08;27.20;94.40
12971;DHT22;6550;48.650;8.774;2023-10-13T12:09:42;27.10;95.00
12971;DHT22;6550;48.650;8.774;2023-10-13T12:15:07;27.20;96.30
12971;DHT22;6550;48.650;8.774;2023-10-13T12:20:12;27.10;92.70
12971;DHT22;6550;48.650;8.774;2023-10-13T12:33:16;27.70;92.10
12971;DHT22;6550;48.650;8.774;2023-10-13T12:36:01;27.30;92.20
12971;DHT22;6550;48.650;8.774;2023-10-13T12:38:31;27.30;91.60
12971;DHT22;6550;48.650;8.774;2023-10-13T12:41:07;27.20;91.80
12971;DHT22;6550;48.650;8.774;2023-10-13T12:44:01;27.10;91.20
12971;DHT22;6550;48.650;8.774;2023-10-13T12:46:48;27.00;92.00
12971;DHT22;6550;48.650;8.774;2023-10-13T12:49:36;27.00;91.70
12971;DHT22;6550;48.650;8.774;2023-10-13T12:54:52;26.90;92.30
12971;DHT22;6550;48.650;8.774;2023-10-13T12:57:33;26.60;92.20
12971;DHT22;6550;48.650;8.774;2023-10-13T13:00:00;26.70;92.90
12971;DHT22;6550;48.650;8.774;2023-10-13T13:02:31;26.60;93.40
12971;DHT22;6550;48.650;8.774;2023-10-13T13:07:35;26.60;91.80
12971;DHT22;6550;48.650;8.774;2023-10-13T13:10:11;26.70;92.10
12971;DHT22;6550;48.650;8.774;2023-10-13T13:12:41;26.70;91.70
12971;DHT22;6550;48.650;8.774;2023-10-13T13:15:09;26.60;92.10
12971;DHT22;6550;48.650;8.774;2023-10-13T13:17:38;26.50;91.50
12971;DHT22;6550;48.650;8.774;2023-10-13T13:20:06;26.40;91.70
12971;DHT22;6550;48.650;8.774;2023-10-13T13:22:53;26.20;91.50
12971;DHT22;6550;48.650;8.774;2023-10-13T13:25:22;26.20;92.00
12971;DHT22;6550;48.650;8.774;2023-10-13T13:38:04;25.90;93.00
12971;DHT22;6550;48.650;8.774;2023-10-13T13:40:51;25.90;92.30
12971;DHT22;6550;48.650;8.774;2023-10-13T13:43:22;25.70;92.60
12971;DHT22;6550;48.650;8.774;2023-10-13T13:45:59;25.70;93.00
12971;DHT22;6550;48.650;8.774;2023-10-13T13:48:28;25.60;92.40
12971;DHT22;6550;48.650;8.774;2023-10-13T13:50:58;25.80;93.40
12971;DHT22;6550;48.650;8.774;2023-10-13T13:53:32;25.50;93.20
12971;DHT22;6550;48.650;8.774;2023-10-13T13:56:04;25.40;93.20
12971;DHT22;6550;48.650;8.774;2023-10-13T13:58:33;25.40;93.60
12971;DHT22;6550;48.650;8.774;2023-10-13T14:01:01;25.20;94.00
12971;DHT22;6550;48.650;8.774;2023-10-13T14:03:40;25.30;94.30
12971;DHT22;6550;48.650;8.774;2023-10-13T14:06:16;25.20;93.90
12971;DHT22;6550;48.650;8.774;2023-10-13T14:08:58;25.40;94.40
12971;DHT22;6550;48.650;8.774;2023-10-13T14:11:44;25.30;94.40
12971;DHT22;6550;48.650;8.774;2023-10-13T14:17:00;25.00;93.80
12971;DHT22;6550;48.650;8.774;2023-10-13T14:19:36;25.00;94.50
12971;DHT22;6550;48.650;8.774;2023-10-13T14:22:08;24.90;94.70
12971;DHT22;6550;48.650;8.774;2023-10-13T14:24:39;24.90;95.20
12971;DHT22;6550;48.650;8.774;2023-10-13T14:27:13;24.90;95.20
12971;DHT22;6550;48.650;8.774;2023-10-13T14:29:44;24.80;95.40
12971;DHT22;6550;48.650;8.774;2023-10-13T14:32:14;24.80;95.10
12971;DHT22;6550;48.650;8.774;2023-10-13T14:34:45;24.70;95.30
12971;DHT22;6550;48.650;8.774;2023-10-13T14:37:14;24.70;95.50
12971;DHT22;6550;48.650;8.774;2023-10-13T14:39:58;24.70;95.30
12971;DHT22;6550;48.650;8.774;2023-10-13T14:42:29;24.60;95.30
12971;DHT22;6550;48.650;8.774;2023-10-13T14:45:02;24.60;95.10
12971;DHT22;6550;48.650;8.774;2023-10-13T14:50:11;24.50;95.40
12971;DHT22;6550;48.650;8.774;2023-10-13T14:52:48;24.50;95.60
12971;DHT22;6550;48.650;8.774;2023-10-13T14:55:15;24.50;95.70
12971;DHT22;6550;48.650;8.774;2023-10-13T14:57:47;24.50;95.30
12971;DHT22;6550;48.650;8.774;2023-10-13T15:00:17;24.50;95.20
12971;DHT22;6550;48.650;8.774;2023-10-13T15:02:52;24.50;94.90
12971;DHT22;6550;48.650;8.774;2023-10-13T15:07:50;23.90;94.10
12971;DHT22;6550;48.650;8.774;2023-10-13T15:10:18;24.40;95.20
12971;DHT22;6550;48.650;8.774;2023-10-13T15:12:47;24.30;95.40
12971;DHT22;6550;48.650;8.774;2023-10-13T15:15:15;24.30;95.50
12971;DHT22;6550;48.650;8.774;2023-10-13T15:17:46;24.20;95.00
12971;DHT22;6550;48.650;8.774;2023-10-13T15:20:19;24.30;94.10
12971;DHT22;6550;48.650;8.774;2023-10-13T15:22:47;24.20;94.60
12971;DHT22;6550;48.650;8.774;2023-10-13T15:25:15;24.20;94.60
12971;DHT22;6550;48.650;8.774;2023-10-13T15:28:01;24.20;95.10
12971;DHT22;6550;48.650;8.774;2023-10-13T15:30:35;24.10;94.20
12971;DHT22;6550;48.650;8.774;2023-10-13T15:33:12;24.00;94.80
12971;DHT22;6550;48.650;8.774;2023-10-13T15:35:41;23.90;95.00
12971;DHT22;6550;48.650;8.774;2023-10-13T15:38:14;24.00;94.90
12971;DHT22;6550;48.650;8.774;2023-10-13T15:40:44;23.90;94.80
12971;DHT22;6550;48.650;8.774;2023-10-13T15:43:14;24.10;95.10
12971;DHT22;6550;48.650;8.774;2023-10-13T15:45:43;23.80;95.00
12971;DHT22;6550;48.650;8.774;2023-10-13T15:48:12;23.90;94.70
12971;DHT22;6550;48.650;8.774;2023-10-13T15:50:45;23.80;95.30
12971;DHT22;6550;48.650;8.774;2023-10-13T15:55:42;23.70;94.70
12971;DHT22;6550;48.650;8.774;2023-10-13T15:58:15;23.70;95.20
12971;DHT22;6550;48.650;8.774;2023-10-13T16:00:42;23.60;95.40
12971;DHT22;6550;48.650;8.774;2023-10-13T16:03:09;23.50;95.30
12971;DHT22;6550;48.650;8.774;2023-10-13T16:05:38;23.50;95.20
12971;DHT22;6550;48.650;8.774;2023-10-13T16:08:09;23.50;95.70
12971;DHT22;6550;48.650;8.774;2023-10-13T16:10:42;23.50;95.80
12971;DHT22;6550;48.650;8.774;2023-10-13T16:13:12;23.30;96.20
12971;DHT22;6550;48.650;8.774;2023-10-13T16:15:44;23.20;95.90
12971;DHT22;6550;48.650;8.774;2023-10-13T16:18:14;23.20;95.90
12971;DHT22;6550;48.650;8.774;2023-10-13T16:20:48;23.20;96.30
12971;DHT22;6550;48.650;8.774;2023-10-13T16:23:17;23.10;96.30
12971;DHT22;6550;48.650;8.774;2023-10-13T16:25:44;23.00;96.30
12971;DHT22;6550;48.650;8.774;2023-10-13T16:28:12;23.00;96.50
12971;DHT22;6550;48.650;8.774;2023-10-13T16:30:41;23.00;96.60
12971;DHT22;6550;48.650;8.774;2023-10-13T16:33:11;22.80;96.80
12971;DHT22;6550;48.650;8.774;2023-10-13T16:35:41;22.70;96.80
12971;DHT22;6550;48.650;8.774;2023-10-13T16:38:12;22.70;96.90
12971;DHT22;6550;48.650;8.774;2023-10-13T16:43:06;22.50;97.00
12971;DHT22;6550;48.650;8.774;2023-10-13T16:45:39;22.40;97.60
12971;DHT22;6550;48.650;8.774;2023-10-13T16:48:13;22.30;98.00
12971;DHT22;6550;48.650;8.774;2023-10-13T16:50:46;22.30;97.80
12971;DHT22;6550;48.650;8.774;2023-10-13T16:53:14;22.10;97.90
12971;DHT22;6550;48.650;8.774;2023-10-13T16:55:43;22.00;98.00
12971;DHT22;6550;48.650;8.774;2023-10-13T16:58:13;21.90;97.80
12971;DHT22;6550;48.650;8.774;2023-10-13T17:00:40;21.90;98.70
12971;DHT22;6550;48.650;8.774;2023-10-13T17:03:14;21.80;98.20
12971;DHT22;6550;48.650;8.774;2023-10-13T17:05:46;21.80;98.60
12971;DHT22;6550;48.650;8.774;2023-10-13T17:08:15;21.60;98.70
12971;DHT22;6550;48.650;8.774;2023-10-13T17:10:42;21.50;98.90
12971;DHT22;6550;48.650;8.774;2023-10-13T17:13:09;21.40;99.00
12971;DHT22;6550;48.650;8.774;2023-10-13T17:15:37;21.30;99.20
12971;DHT22;6550;48.650;8.774;2023-10-13T17:18:05;21.20;99.30
12971;DHT22;6550;48.650;8.774;2023-10-13T17:20:39;21.10;99.40
12971;DHT22;6550;48.650;8.774;2023-10-13T17:23:07;21.00;99.40
12971;DHT22;6550;48.650;8.774;2023-10-13T17:25:36;20.90;99.40
12971;DHT22;6550;48.650;8.774;2023-10-13T17:28:06;20.80;99.70
12971;DHT22;6550;48.650;8.774;2023-10-13T17:30:42;20.80;99.70
12971;DHT22;6550;48.650;8.774;2023-10-13T17:33:12;20.70;99.90
12971;DHT22;6550;48.650;8.774;2023-10-13T17:35:42;20.60;99.90
12971;DHT22;6550;48.650;8.774;2023-10-13T17:38:09;20.40;99.90
12971;DHT22;6550;48.650;8.774;2023-10-13T17:40:37;20.50;99.90
12971;DHT22;6550;48.650;8.774;2023-10-13T17:43:07;20.30;99.90
12971;DHT22;6550;48.650;8.774;2023-10-13T17:45:35;20.30;99.90
12971;DHT22;6550;48.650;8.774;2023-10-13T17:48:01;20.30;99.90
12971;DHT22;6550;48.650;8.774;2023-10-13T17:50:28;20.30;99.90
12971;DHT22;6550;48.650;8.774;2023-10-13T17:53:01;20.10;99.90
12971;DHT22;6550;48.650;8.774;2023-10-13T17:55:28;20.00;99.90
12971;DHT22;6550;48.650;8.774;2023-10-13T17:57:58;20.10;99.90
12971;DHT22;6550;48.650;8.774;2023-10-13T18:00:25;20.00;99.90
12971;DHT22;6550;48.650;8.774;2023-10-13T18:02:52;20.40;99.90
12971;DHT22;6550;48.650;8.774;2023-10-13T18:05:23;20.00;99.90
12971;DHT22;6550;48.650;8.774;2023-10-13T18:07:50;19.80;99.90
12971;DHT22;6550;48.650;8.774;2023-10-13T18:10:17;19.70;99.90
12971;DHT22;6550;48.650;8.774;2023-10-13T18:12:45;19.80;99.90